createdAt,value
2022-12-23T00:04:36.051Z,50.50
2022-12-23T00:09:38.757Z,49.70
2022-12-23T00:15:00.238Z,47.60
2022-12-23T00:20:04.368Z,48.80
2022-12-23T00:25:07.381Z,45.80
2022-12-23T00:30:11.027Z,34.20
2022-12-23T00:35:13.842Z,46.50
2022-12-23T00:40:35.486Z,41.50
2022-12-23T00:45:38.314Z,48.50
2022-12-23T00:50:41.051Z,39.00
2022-12-23T00:55:47.817Z,33.60
2022-12-23T01:01:11.817Z,37.60
2022-12-23T01:06:15.074Z,30.80
2022-12-23T01:16:20.542Z,34.80
2022-12-23T01:21:23.617Z,25.50
2022-12-23T01:26:27.111Z,28.40
2022-12-23T01:31:29.971Z,23.90
2022-12-23T01:36:32.979Z,23.80
2022-12-23T01:41:54.635Z,23.30
2022-12-23T01:46:57.362Z,21.30
2022-12-23T01:52:00.211Z,21.60
2022-12-23T01:57:03.012Z,23.80
2022-12-23T02:02:24.570Z,21.40
2022-12-23T02:07:47.141Z,23.30
2022-12-23T02:13:04.919Z,23.20
2022-12-23T02:18:46.354Z,21.60
2022-12-23T02:24:01.312Z,28.50
2022-12-23T02:29:22.305Z,27.40
2022-12-23T02:34:30.773Z,23.60
2022-12-23T02:40:01.503Z,22.20
2022-12-23T02:45:17.839Z,29.70
2022-12-23T02:50:28.036Z,27.30
2022-12-23T02:55:35.946Z,31.50
2022-12-23T03:00:41.328Z,24.30
2022-12-23T03:05:46.964Z,22.70
2022-12-23T03:11:12.110Z,28.80
2022-12-23T03:16:24.403Z,31.30
2022-12-23T03:21:37.786Z,27.80
2022-12-23T03:27:05.026Z,24.00
2022-12-23T03:32:08.645Z,39.60
2022-12-23T03:37:14.436Z,32.00
2022-12-23T03:42:29.829Z,37.80
2022-12-23T03:47:38.670Z,42.30
2022-12-23T03:52:59.853Z,39.90
2022-12-23T03:58:17.228Z,38.40
2022-12-23T04:03:34.992Z,43.30
2022-12-23T04:08:39.672Z,35.30
2022-12-23T04:13:42.441Z,51.10
2022-12-23T04:18:45.142Z,42.70
2022-12-23T04:23:47.856Z,38.20
2022-12-23T04:28:50.524Z,51.30
2022-12-23T04:33:53.221Z,53.60
2022-12-23T04:38:55.943Z,50.60
2022-12-23T04:43:58.676Z,47.20
2022-12-23T04:49:01.396Z,43.10
2022-12-23T04:54:04.197Z,41.50
2022-12-23T04:59:06.897Z,57.00
2022-12-23T05:04:10.173Z,50.30
2022-12-23T05:14:15.492Z,65.00
2022-12-23T05:19:18.229Z,50.40
2022-12-23T05:24:20.963Z,48.90
2022-12-23T05:29:23.831Z,66.00
2022-12-23T05:34:26.620Z,38.20
2022-12-23T05:39:29.569Z,49.00
2022-12-23T05:44:32.383Z,52.20
2022-12-23T05:49:35.095Z,46.70
2022-12-23T05:54:37.809Z,49.10
2022-12-23T05:59:40.550Z,44.00
2022-12-23T06:04:43.289Z,58.10
2022-12-23T06:09:45.984Z,41.70
2022-12-23T06:14:48.684Z,51.10
2022-12-23T06:19:51.480Z,48.80
2022-12-23T06:24:54.151Z,44.90
2022-12-23T06:29:57.094Z,53.60
2022-12-23T06:34:59.776Z,47.60
2022-12-23T06:40:02.652Z,41.40
2022-12-23T06:45:05.882Z,43.20
2022-12-23T06:55:12.647Z,34.70
2022-12-23T07:00:16.272Z,52.60
2022-12-23T07:05:19.022Z,32.30
2022-12-23T07:10:21.735Z,46.00
2022-12-23T07:15:24.467Z,53.70
2022-12-23T07:20:29.416Z,39.30
2022-12-23T07:25:32.122Z,52.10
2022-12-23T07:30:35.455Z,42.30
2022-12-23T07:40:41.253Z,45.50
2022-12-23T07:45:44.054Z,42.50
2022-12-23T07:50:46.795Z,51.10
2022-12-23T07:55:56.434Z,38.00
2022-12-23T08:01:01.533Z,55.20
2022-12-23T08:06:12.366Z,52.80
2022-12-23T08:11:16.012Z,55.60
2022-12-23T08:16:19.425Z,61.60
2022-12-23T08:21:22.311Z,56.90
2022-12-23T08:26:25.253Z,46.60
2022-12-23T08:31:33.666Z,47.30
2022-12-23T08:36:36.798Z,59.70
2022-12-23T08:41:42.318Z,49.00
2022-12-23T08:46:45.668Z,48.50
2022-12-23T08:56:51.570Z,43.70
2022-12-23T09:01:54.430Z,37.30
2022-12-23T09:06:57.269Z,48.80
2022-12-23T09:12:00.019Z,35.40
2022-12-23T09:17:02.721Z,40.00
2022-12-23T09:22:05.435Z,42.60
2022-12-23T09:27:08.254Z,35.90
2022-12-23T09:32:11.129Z,30.70
2022-12-23T09:37:16.717Z,49.20
2022-12-23T09:42:30.220Z,36.60
2022-12-23T09:47:34.174Z,41.90
2022-12-23T09:52:50.419Z,49.20
2022-12-23T09:58:01.183Z,54.80
2022-12-23T10:03:27.165Z,47.90
2022-12-23T10:08:29.894Z,62.60
2022-12-23T10:13:38.405Z,49.80
2022-12-23T10:18:45.003Z,54.60
2022-12-23T10:23:52.744Z,63.20
2022-12-23T10:29:18.701Z,63.30
2022-12-23T10:35:51.301Z,49.40
2022-12-23T10:40:49.167Z,67.60
2022-12-23T10:46:03.067Z,61.70
2022-12-23T10:51:23.095Z,62.80
2022-12-23T10:56:28.781Z,60.80
2022-12-23T11:01:32.347Z,60.00
2022-12-23T11:06:40.974Z,58.70
2022-12-23T11:12:04.939Z,72.10
2022-12-23T11:17:29.134Z,75.20
2022-12-23T11:22:31.866Z,47.90
2022-12-23T11:27:35.092Z,71.20
2022-12-23T11:37:43.053Z,58.90
2022-12-23T11:42:53.382Z,56.70
2022-12-23T11:47:57.968Z,61.20
2022-12-23T11:53:09.712Z,53.30
2022-12-23T11:58:19.672Z,65.60
2022-12-23T12:03:27.979Z,64.50
2022-12-23T12:08:35.587Z,63.90
2022-12-23T12:13:43.592Z,53.00
2022-12-23T12:18:53.664Z,52.70
2022-12-23T12:24:19.528Z,61.00
2022-12-23T12:29:45.818Z,58.00
2022-12-23T12:34:57.099Z,61.40
2022-12-23T12:40:04.095Z,46.10
2022-12-23T12:45:12.860Z,62.30
2022-12-23T12:50:23.579Z,57.40
2022-12-23T12:55:29.918Z,78.60
2022-12-23T13:00:45.576Z,63.50
2022-12-23T13:06:00.587Z,47.60
2022-12-23T13:11:14.134Z,54.30
2022-12-23T13:22:07.241Z,77.20
2022-12-23T13:27:19.298Z,77.00
2022-12-23T13:32:37.541Z,71.10
2022-12-23T13:37:59.272Z,78.30
2022-12-23T13:43:19.311Z,86.70
2022-12-23T13:48:44.216Z,91.70
2022-12-23T13:54:12.219Z,92.60
2022-12-23T13:59:16.468Z,83.40
2022-12-23T14:04:35.824Z,81.30
2022-12-23T14:09:39.300Z,70.90
2022-12-23T14:14:59.642Z,75.10
2022-12-23T14:20:27.410Z,75.50
2022-12-23T14:26:16.597Z,81.50
2022-12-23T14:31:34.971Z,91.50
2022-12-23T14:36:37.834Z,65.50
2022-12-23T14:41:52.907Z,82.80
2022-12-23T14:46:57.370Z,79.60
2022-12-23T14:52:46.497Z,71.60
2022-12-23T14:57:57.212Z,83.30
2022-12-23T15:03:01.523Z,95.30
2022-12-23T15:08:05.189Z,87.90
2022-12-23T15:13:17.098Z,73.60
2022-12-23T15:18:20.159Z,97.80
2022-12-23T15:23:22.862Z,84.60
2022-12-23T15:28:36.260Z,114.30
2022-12-23T15:39:09.780Z,111.60
2022-12-23T15:44:23.505Z,73.80
2022-12-23T15:49:26.340Z,76.00
2022-12-23T15:54:35.439Z,72.40
2022-12-23T15:59:39.266Z,62.90
2022-12-23T16:04:42.258Z,87.40
2022-12-23T16:09:44.929Z,95.70
2022-12-23T16:15:00.573Z,95.50
2022-12-23T16:20:15.755Z,72.00
2022-12-23T16:25:32.005Z,76.30
2022-12-23T16:30:41.919Z,75.60
2022-12-23T16:35:44.646Z,71.60
2022-12-23T16:40:53.931Z,95.30
2022-12-23T16:45:58.060Z,70.20
2022-12-23T16:51:03.505Z,73.20
2022-12-23T16:56:18.452Z,88.50
2022-12-23T17:01:24.058Z,161.20
2022-12-23T17:06:27.291Z,113.30
2022-12-23T17:11:37.356Z,114.50
2022-12-23T17:16:40.217Z,107.90
2022-12-23T17:21:46.053Z,73.30
2022-12-23T17:26:49.122Z,94.90
2022-12-23T17:31:52.079Z,86.20
2022-12-23T17:36:54.931Z,92.50
2022-12-23T17:41:57.663Z,96.00
2022-12-23T17:47:01.083Z,122.80
2022-12-23T17:52:06.784Z,111.30
2022-12-23T17:57:18.157Z,87.40
2022-12-23T18:02:22.143Z,119.00
2022-12-23T18:07:26.175Z,113.70
2022-12-23T18:12:38.155Z,86.50
2022-12-23T18:17:40.866Z,118.50
2022-12-23T18:22:45.865Z,117.30
2022-12-23T18:27:49.223Z,94.60
2022-12-23T18:37:55.670Z,86.60
2022-12-23T18:42:58.366Z,92.00
2022-12-23T18:48:03.048Z,95.60
2022-12-23T18:53:07.574Z,67.20
2022-12-23T18:58:13.166Z,86.40
2022-12-23T19:03:25.571Z,109.50
2022-12-23T19:08:28.272Z,120.70
2022-12-23T19:13:30.995Z,90.90
2022-12-23T19:18:33.728Z,102.80
2022-12-23T19:23:37.303Z,98.10
2022-12-23T19:28:44.256Z,108.00
2022-12-23T19:33:47.280Z,81.20
2022-12-23T19:38:50.687Z,94.50
2022-12-23T19:43:53.422Z,127.20
2022-12-23T19:48:56.201Z,84.40
2022-12-23T19:53:58.928Z,79.40
2022-12-23T19:59:02.463Z,106.20
2022-12-23T20:04:05.178Z,73.70
2022-12-23T20:09:11.457Z,83.70
2022-12-23T20:14:17.121Z,89.70
2022-12-23T20:19:20.275Z,76.40
2022-12-23T20:24:23.100Z,63.10
2022-12-23T20:29:25.871Z,98.70
2022-12-23T20:34:30.830Z,64.20
2022-12-23T20:39:37.581Z,67.80
2022-12-23T20:44:40.272Z,80.50
2022-12-23T20:49:42.972Z,59.20
2022-12-23T20:54:45.681Z,72.20
2022-12-23T20:59:48.360Z,71.70
2022-12-23T21:04:51.115Z,70.50
2022-12-23T21:09:53.867Z,61.10
2022-12-23T21:14:56.540Z,46.80
2022-12-23T21:20:06.948Z,37.80
2022-12-23T21:25:10.692Z,27.50
2022-12-23T21:30:13.721Z,27.70
2022-12-23T21:35:16.472Z,29.90
2022-12-23T21:40:19.289Z,20.00
2022-12-23T21:45:22.031Z,26.30
2022-12-23T21:50:24.831Z,44.00
2022-12-23T21:55:27.537Z,32.80
2022-12-23T22:00:30.361Z,51.00
2022-12-23T22:05:33.104Z,49.60
2022-12-23T22:10:38.442Z,27.40
2022-12-23T22:15:42.959Z,19.10
2022-12-23T22:20:46.522Z,15.00
2022-12-23T22:25:54.499Z,15.50
2022-12-23T22:31:12.590Z,12.70
2022-12-23T22:36:16.774Z,19.00
2022-12-23T22:41:19.897Z,43.20
2022-12-23T22:46:24.550Z,38.50
2022-12-23T22:51:30.088Z,36.40
2022-12-23T22:56:32.852Z,35.30
2022-12-23T23:01:36.696Z,35.50
2022-12-23T23:06:39.453Z,37.70
2022-12-23T23:11:44.341Z,30.20
2022-12-23T23:16:47.488Z,30.90
2022-12-23T23:26:52.945Z,80.30
2022-12-23T23:31:55.668Z,101.90
2022-12-23T23:36:58.494Z,52.10
2022-12-23T23:42:01.229Z,64.70
2022-12-23T23:47:04.082Z,47.10
2022-12-23T23:52:06.758Z,62.00
2022-12-23T23:57:10.484Z,86.80
